logo dgac
Miércoles 20 de Febrero del 2019
Buscar por aerodromo o helipuerto
Ingrese nombre de aeródromo, localidad o designador OACI:
METAR del 20-02-2019 a las 12:00 UTC
METAR SCRD 201200Z 36004KT 0200 -DZ FG VV000 15/15 Q1015
Viento: dirección 360 grados, velocidad 4 nudos
Visibilidad: 200 metros
Débil LLovizna
Niebla
Visib_vertical: Cielo oscurecido, : 0 pies de visibilidad vertical
Temperatura: 15 °C
Rocío: 15 °C
Humedad_relativa: 100%
Presión: 1015 hPa
METAR del 20-02-2019 a las 12:00 UTC
METAR SCRD 201200Z 36004KT 0200 -DZ FG VV000 15/15 Q1015
Viento: dirección 360 grados, velocidad 4 nudos
Visibilidad: 200 metros
Débil LLovizna
Niebla
Visib_vertical: Cielo oscurecido, : 0 pies de visibilidad vertical
Temperatura: 15 °C
Rocío: 15 °C
Humedad_relativa: 100%
Presión: 1015 hPa
METAR del 20-02-2019 a las 00:00 UTC
METAR SCRD 200000Z 23003KT 9999 FEW010 15/14 Q1015
Viento: dirección 230 grados, velocidad 3 nudos
Visibilidad: 10 km o más
Nubes: Escasa nubosidad a 1000 pies sobre el nivel del aeródromo
Temperatura: 15 °C
Rocío: 14 °C
Humedad_relativa: 94%
Presión: 1015 hPa
METAR del 19-02-2019 a las 23:00 UTC
METAR SCRD 192300Z 27004KT 9999 FEW010 17/14 Q1015
Viento: dirección 270 grados, velocidad 4 nudos
Visibilidad: 10 km o más
Nubes: Escasa nubosidad a 1000 pies sobre el nivel del aeródromo
Temperatura: 17 °C
Rocío: 14 °C
Humedad_relativa: 83%
Presión: 1015 hPa
METAR del 19-02-2019 a las 22:00 UTC
METAR SCRD 192200Z 35005KT 9999 SCT010 17/14 Q1015
Viento: dirección 350 grados, velocidad 5 nudos
Visibilidad: 10 km o más
Nubes: Nubosidad parcial a 1000 pies sobre el nivel del aeródromo
Temperatura: 17 °C
Rocío: 14 °C
Humedad_relativa: 83%
Presión: 1015 hPa
METAR del 19-02-2019 a las 21:00 UTC
METAR SCRD 192100Z 34004KT 9999 BKN010 17/14 Q1016
Viento: dirección 340 grados, velocidad 4 nudos
Visibilidad: 10 km o más
Nubes: Nublado a 1000 pies sobre el nivel del aeródromo
Temperatura: 17 °C
Rocío: 14 °C
Humedad_relativa: 83%
Presión: 1016 hPa
METAR del 19-02-2019 a las 20:00 UTC
METAR SCRD 192000Z 31005KT 9999 OVC010 16/14 Q1016
Viento: dirección 310 grados, velocidad 5 nudos
Visibilidad: 10 km o más
Nubes: Cubierto a 1000 pies sobre el nivel del aeródromo
Temperatura: 16 °C
Rocío: 14 °C
Humedad_relativa: 88%
Presión: 1016 hPa
METAR del 19-02-2019 a las 19:00 UTC
METAR SCRD 191900Z 33005KT 8000 OVC006 17/14 Q1016
Viento: dirección 330 grados, velocidad 5 nudos
Visibilidad: 8000 metros
Nubes: Cubierto a 600 pies sobre el nivel del aeródromo
Temperatura: 17 °C
Rocío: 14 °C
Humedad_relativa: 83%
Presión: 1016 hPa
METAR del 19-02-2019 a las 18:00 UTC
METAR SCRD 191800Z 33006KT 5000 BR OVC005 17/15 Q1017
Viento: dirección 330 grados, velocidad 6 nudos
Visibilidad: 5000 metros
Neblina
Nubes: Cubierto a 500 pies sobre el nivel del aeródromo
Temperatura: 17 °C
Rocío: 15 °C
Humedad_relativa: 88%
Presión: 1017 hPa
METAR del 19-02-2019 a las 17:00 UTC
METAR SCRD 191700Z 32005KT 4000 BR OVC005 17/15 Q1016
Viento: dirección 320 grados, velocidad 5 nudos
Visibilidad: 4000 metros
Neblina
Nubes: Cubierto a 500 pies sobre el nivel del aeródromo
Temperatura: 17 °C
Rocío: 15 °C
Humedad_relativa: 88%
Presión: 1016 hPa